Kezdőlap
METAR-TAF:

METAR-TAF

Repülőterek :

Urgench, Üzbegisztán

földrajzi szélesség: 41-35N, földrajzi hosszúság: 060-38-42E, magasság: 98 m

Jelenlegi meteorológiai megfigyelések

A jelentés 22 perccel ezelõtt készült, 07:30 UTC
Keleti szél 6 kt
Hőmérséklet 2°C
Páratartalom 87%
Légköri nyomás 1024 hPa
Látótávolság: 8000 m
Borult 1600 lábon

METAR: UTNU 220730Z 09006KT 8000 OVC016 02/00 Q1024 R31/CLRD70 NOSIG

Idő: 12:52 (07:52 UTC)

Előrejelzés

A jelentés 2 órával és 49 perccel ezelõtt készült, 05:03 UTC
Az előrejelzés 22-én 06 óra UTC és 23-én 06 óra UTC között érvényes
Keleti szél 10 kt széllökések: 20 kt
Látótávolság: 6000 m
Szakadozott felhőzet 2000 lábon
Borult 10000 lábon
22-én 06 óra UTC és 22-én 12 óra UTC között ideiglenes
Különbözõ irányokból fújó szél 5 kt
Látótávolság: 4000 m
Szakadozott felhőzet 1000 lábon
Párásság

TAF: UTNU 220503Z 2206/2306 08010G20KT 6000 BKN020 OVC100 TEMPO 2206/2212 VRB05KT 4000 BR BKN010

Meteorológiai megfigyelések és előrejelzések több, mint 4000 repülőtéren (METAR és TAF jelentéseket).

A térképen piros és sárga pontok jelzik az elérhető meteorológiai állomásokat.

Mozgassa az egeret a pont fölött, hogy megjelenjen az állomás neve.

Azután kattintson az időjárási megfigyelések és előrejelzések megtekintéséhez.

A térkép megváltoztatása: kattintson a fekete keresztel jelölt zöld gombra ráközelítéshez, a vonallal jelölt zöld gombra távolításhoz, vagy a zöld nyilakra a szomszédos térképek eléréséhez.


METAR-TAF: